sensor_id;sensor_type;location;lat;lon;timestamp;temperature;humidity
21508;DHT22;10915;54.352;9.074;2022-11-06T00:01:07;10.20;99.90
21508;DHT22;10915;54.352;9.074;2022-11-06T00:03:33;10.20;99.90
21508;DHT22;10915;54.352;9.074;2022-11-06T00:05:58;10.20;99.90
21508;DHT22;10915;54.352;9.074;2022-11-06T00:08:42;10.20;99.90
21508;DHT22;10915;54.352;9.074;2022-11-06T00:11:10;10.20;99.90
21508;DHT22;10915;54.352;9.074;2022-11-06T00:13:37;10.20;99.90
21508;DHT22;10915;54.352;9.074;2022-11-06T00:16:05;10.20;99.90
21508;DHT22;10915;54.352;9.074;2022-11-06T00:18:32;10.20;99.90
21508;DHT22;10915;54.352;9.074;2022-11-06T00:20:58;10.10;99.90
21508;DHT22;10915;54.352;9.074;2022-11-06T00:23:24;10.10;99.90
21508;DHT22;10915;54.352;9.074;2022-11-06T00:25:50;10.10;99.90
21508;DHT22;10915;54.352;9.074;2022-11-06T00:28:20;10.10;99.90
21508;DHT22;10915;54.352;9.074;2022-11-06T00:30:46;10.10;99.90
21508;DHT22;10915;54.352;9.074;2022-11-06T00:33:12;10.10;99.90
21508;DHT22;10915;54.352;9.074;2022-11-06T00:35:38;10.10;99.90
21508;DHT22;10915;54.352;9.074;2022-11-06T00:38:05;10.10;99.90
21508;DHT22;10915;54.352;9.074;2022-11-06T00:40:31;10.10;99.90
21508;DHT22;10915;54.352;9.074;2022-11-06T00:42:57;10.10;99.90
21508;DHT22;10915;54.352;9.074;2022-11-06T00:45:24;10.10;99.90
21508;DHT22;10915;54.352;9.074;2022-11-06T00:47:50;10.10;99.90
21508;DHT22;10915;54.352;9.074;2022-11-06T00:50:16;10.10;99.90
21508;DHT22;10915;54.352;9.074;2022-11-06T00:52:43;10.10;99.90
21508;DHT22;10915;54.352;9.074;2022-11-06T00:55:09;10.10;99.90
21508;DHT22;10915;54.352;9.074;2022-11-06T00:57:35;10.10;99.90
21508;DHT22;10915;54.352;9.074;2022-11-06T01:00:01;10.10;99.90
21508;DHT22;10915;54.352;9.074;2022-11-06T01:02:26;10.10;99.90
21508;DHT22;10915;54.352;9.074;2022-11-06T01:04:52;10.10;99.90
21508;DHT22;10915;54.352;9.074;2022-11-06T01:07:18;10.10;99.90
21508;DHT22;10915;54.352;9.074;2022-11-06T01:09:44;10.10;99.90
21508;DHT22;10915;54.352;9.074;2022-11-06T01:12:09;10.10;99.90
21508;DHT22;10915;54.352;9.074;2022-11-06T01:14:37;10.10;99.90
21508;DHT22;10915;54.352;9.074;2022-11-06T01:17:03;10.10;99.90
21508;DHT22;10915;54.352;9.074;2022-11-06T01:19:29;10.10;99.90
21508;DHT22;10915;54.352;9.074;2022-11-06T01:21:54;10.10;99.90
21508;DHT22;10915;54.352;9.074;2022-11-06T01:24:23;10.10;99.90
21508;DHT22;10915;54.352;9.074;2022-11-06T01:26:51;10.10;99.90
21508;DHT22;10915;54.352;9.074;2022-11-06T01:29:18;10.10;99.90
21508;DHT22;10915;54.352;9.074;2022-11-06T01:31:45;10.10;99.90
21508;DHT22;10915;54.352;9.074;2022-11-06T01:34:12;10.10;99.90
21508;DHT22;10915;54.352;9.074;2022-11-06T01:36:38;10.10;99.90
21508;DHT22;10915;54.352;9.074;2022-11-06T01:39:05;10.10;99.90
21508;DHT22;10915;54.352;9.074;2022-11-06T01:41:38;10.10;99.90
21508;DHT22;10915;54.352;9.074;2022-11-06T01:46:52;10.10;99.90
21508;DHT22;10915;54.352;9.074;2022-11-06T01:49:18;10.10;99.90
21508;DHT22;10915;54.352;9.074;2022-11-06T01:51:56;10.00;99.90
21508;DHT22;10915;54.352;9.074;2022-11-06T01:54:24;10.10;99.90
21508;DHT22;10915;54.352;9.074;2022-11-06T01:56:52;10.00;99.90
21508;DHT22;10915;54.352;9.074;2022-11-06T01:59:22;10.00;99.90
21508;DHT22;10915;54.352;9.074;2022-11-06T02:01:49;10.10;99.90
21508;DHT22;10915;54.352;9.074;2022-11-06T02:04:26;10.00;99.90
21508;DHT22;10915;54.352;9.074;2022-11-06T02:06:53;10.00;99.90
21508;DHT22;10915;54.352;9.074;2022-11-06T02:09:19;10.00;99.90
21508;DHT22;10915;54.352;9.074;2022-11-06T02:11:50;10.00;99.90
21508;DHT22;10915;54.352;9.074;2022-11-06T02:17:08;10.00;99.90
21508;DHT22;10915;54.352;9.074;2022-11-06T02:22:05;9.90;99.90
21508;DHT22;10915;54.352;9.074;2022-11-06T02:27:17;9.90;99.90
21508;DHT22;10915;54.352;9.074;2022-11-06T02:30:06;9.90;99.90
21508;DHT22;10915;54.352;9.074;2022-11-06T02:32:58;9.90;99.90
21508;DHT22;10915;54.352;9.074;2022-11-06T02:35:27;9.80;99.90
21508;DHT22;10915;54.352;9.074;2022-11-06T02:37:58;9.80;99.90
21508;DHT22;10915;54.352;9.074;2022-11-06T02:40:30;9.80;99.90
21508;DHT22;10915;54.352;9.074;2022-11-06T02:42:59;9.80;99.90
21508;DHT22;10915;54.352;9.074;2022-11-06T02:45:29;9.80;99.90
21508;DHT22;10915;54.352;9.074;2022-11-06T02:47:57;9.80;99.90
21508;DHT22;10915;54.352;9.074;2022-11-06T02:50:32;9.80;99.90
21508;DHT22;10915;54.352;9.074;2022-11-06T02:53:05;9.80;99.90
21508;DHT22;10915;54.352;9.074;2022-11-06T02:56:03;9.80;99.90
21508;DHT22;10915;54.352;9.074;2022-11-06T02:58:37;9.80;99.90
21508;DHT22;10915;54.352;9.074;2022-11-06T03:03:56;9.90;99.90
21508;DHT22;10915;54.352;9.074;2022-11-06T03:06:37;9.90;99.90
21508;DHT22;10915;54.352;9.074;2022-11-06T03:09:08;9.90;99.90
21508;DHT22;10915;54.352;9.074;2022-11-06T03:11:35;9.90;99.90
21508;DHT22;10915;54.352;9.074;2022-11-06T03:19:58;9.90;99.90
21508;DHT22;10915;54.352;9.074;2022-11-06T03:22:37;9.90;99.90
21508;DHT22;10915;54.352;9.074;2022-11-06T03:30:12;9.90;99.90
21508;DHT22;10915;54.352;9.074;2022-11-06T03:33:06;9.90;99.90
21508;DHT22;10915;54.352;9.074;2022-11-06T03:35:39;9.90;99.90
21508;DHT22;10915;54.352;9.074;2022-11-06T03:38:17;9.90;99.90
21508;DHT22;10915;54.352;9.074;2022-11-06T03:40:51;9.90;99.90
21508;DHT22;10915;54.352;9.074;2022-11-06T03:43:22;9.90;99.90
21508;DHT22;10915;54.352;9.074;2022-11-06T03:45:50;9.90;99.90
21508;DHT22;10915;54.352;9.074;2022-11-06T03:51:06;9.90;99.90
21508;DHT22;10915;54.352;9.074;2022-11-06T03:53:55;9.90;99.90
21508;DHT22;10915;54.352;9.074;2022-11-06T03:56:34;9.90;99.90
21508;DHT22;10915;54.352;9.074;2022-11-06T03:59:04;9.90;99.90
21508;DHT22;10915;54.352;9.074;2022-11-06T04:01:34;9.90;99.90
21508;DHT22;10915;54.352;9.074;2022-11-06T04:07:00;9.90;99.90
21508;DHT22;10915;54.352;9.074;2022-11-06T04:09:30;9.90;99.90
21508;DHT22;10915;54.352;9.074;2022-11-06T04:12:19;9.90;99.90
21508;DHT22;10915;54.352;9.074;2022-11-06T04:15:09;9.90;99.90
21508;DHT22;10915;54.352;9.074;2022-11-06T04:17:37;10.00;99.90
21508;DHT22;10915;54.352;9.074;2022-11-06T04:20:06;10.00;99.90
21508;DHT22;10915;54.352;9.074;2022-11-06T04:25:20;10.00;99.90
21508;DHT22;10915;54.352;9.074;2022-11-06T04:31:36;9.90;99.90
21508;DHT22;10915;54.352;9.074;2022-11-06T04:34:12;10.00;99.90
21508;DHT22;10915;54.352;9.074;2022-11-06T04:36:44;10.00;99.90
21508;DHT22;10915;54.352;9.074;2022-11-06T04:39:20;10.00;99.90
21508;DHT22;10915;54.352;9.074;2022-11-06T04:44:36;10.00;99.90
21508;DHT22;10915;54.352;9.074;2022-11-06T04:47:20;10.00;99.90
21508;DHT22;10915;54.352;9.074;2022-11-06T04:49:49;10.00;99.90
21508;DHT22;10915;54.352;9.074;2022-11-06T04:52:21;10.00;99.90
21508;DHT22;10915;54.352;9.074;2022-11-06T04:54:48;10.10;99.90
21508;DHT22;10915;54.352;9.074;2022-11-06T04:57:14;10.10;99.90
21508;DHT22;10915;54.352;9.074;2022-11-06T04:59:40;10.10;99.90
21508;DHT22;10915;54.352;9.074;2022-11-06T05:02:06;10.10;99.90
21508;DHT22;10915;54.352;9.074;2022-11-06T05:04:32;10.10;99.90
21508;DHT22;10915;54.352;9.074;2022-11-06T05:06:58;10.10;99.90
21508;DHT22;10915;54.352;9.074;2022-11-06T05:09:24;10.10;99.90
21508;DHT22;10915;54.352;9.074;2022-11-06T05:11:50;10.10;99.90
21508;DHT22;10915;54.352;9.074;2022-11-06T05:14:16;10.10;99.90
21508;DHT22;10915;54.352;9.074;2022-11-06T05:16:41;10.10;99.90
21508;DHT22;10915;54.352;9.074;2022-11-06T05:19:07;10.10;99.90
21508;DHT22;10915;54.352;9.074;2022-11-06T05:21:33;10.10;99.90
21508;DHT22;10915;54.352;9.074;2022-11-06T05:24:17;10.10;99.90
21508;DHT22;10915;54.352;9.074;2022-11-06T05:26:43;10.10;99.90
21508;DHT22;10915;54.352;9.074;2022-11-06T05:29:10;10.10;99.90
21508;DHT22;10915;54.352;9.074;2022-11-06T05:31:36;10.10;99.90
21508;DHT22;10915;54.352;9.074;2022-11-06T05:34:02;10.10;99.90
21508;DHT22;10915;54.352;9.074;2022-11-06T05:36:27;10.10;99.90
21508;DHT22;10915;54.352;9.074;2022-11-06T05:38:53;10.10;99.90
21508;DHT22;10915;54.352;9.074;2022-11-06T05:41:19;10.10;99.90
21508;DHT22;10915;54.352;9.074;2022-11-06T05:43:44;10.10;99.90
21508;DHT22;10915;54.352;9.074;2022-11-06T05:46:10;10.10;99.90
21508;DHT22;10915;54.352;9.074;2022-11-06T05:48:36;10.10;99.90
21508;DHT22;10915;54.352;9.074;2022-11-06T05:51:06;10.10;99.90
21508;DHT22;10915;54.352;9.074;2022-11-06T05:53:34;10.10;99.90
21508;DHT22;10915;54.352;9.074;2022-11-06T05:56:00;10.00;99.90
21508;DHT22;10915;54.352;9.074;2022-11-06T05:58:26;10.10;99.90
21508;DHT22;10915;54.352;9.074;2022-11-06T06:00:56;10.00;99.90
21508;DHT22;10915;54.352;9.074;2022-11-06T06:03:23;10.00;99.90
21508;DHT22;10915;54.352;9.074;2022-11-06T06:05:49;10.10;99.90
21508;DHT22;10915;54.352;9.074;2022-11-06T06:08:15;10.00;99.90
21508;DHT22;10915;54.352;9.074;2022-11-06T06:10:44;10.10;99.90
21508;DHT22;10915;54.352;9.074;2022-11-06T06:13:11;10.00;99.90
21508;DHT22;10915;54.352;9.074;2022-11-06T06:15:38;10.00;99.90
21508;DHT22;10915;54.352;9.074;2022-11-06T06:18:05;10.00;99.90
21508;DHT22;10915;54.352;9.074;2022-11-06T06:20:31;10.10;99.90
21508;DHT22;10915;54.352;9.074;2022-11-06T06:22:57;10.10;99.90
21508;DHT22;10915;54.352;9.074;2022-11-06T06:25:23;10.10;99.90
21508;DHT22;10915;54.352;9.074;2022-11-06T06:27:50;10.10;99.90
21508;DHT22;10915;54.352;9.074;2022-11-06T06:30:16;10.10;99.90
21508;DHT22;10915;54.352;9.074;2022-11-06T06:32:41;10.10;99.90
21508;DHT22;10915;54.352;9.074;2022-11-06T06:35:07;10.10;99.90
21508;DHT22;10915;54.352;9.074;2022-11-06T06:37:34;10.10;99.90
21508;DHT22;10915;54.352;9.074;2022-11-06T06:39:59;10.10;99.90
21508;DHT22;10915;54.352;9.074;2022-11-06T06:42:27;10.20;99.90
21508;DHT22;10915;54.352;9.074;2022-11-06T06:44:53;10.20;99.90
21508;DHT22;10915;54.352;9.074;2022-11-06T06:47:19;10.20;99.90
21508;DHT22;10915;54.352;9.074;2022-11-06T06:49:45;10.20;99.90
21508;DHT22;10915;54.352;9.074;2022-11-06T06:52:11;10.20;99.90
21508;DHT22;10915;54.352;9.074;2022-11-06T06:54:37;10.20;99.90
21508;DHT22;10915;54.352;9.074;2022-11-06T06:57:03;10.20;99.90
21508;DHT22;10915;54.352;9.074;2022-11-06T06:59:30;10.20;99.90
21508;DHT22;10915;54.352;9.074;2022-11-06T07:01:56;10.20;99.90
21508;DHT22;10915;54.352;9.074;2022-11-06T07:04:23;10.20;99.90
21508;DHT22;10915;54.352;9.074;2022-11-06T07:06:52;10.20;99.90
21508;DHT22;10915;54.352;9.074;2022-11-06T07:09:18;10.30;99.90
21508;DHT22;10915;54.352;9.074;2022-11-06T07:11:44;10.30;99.90
21508;DHT22;10915;54.352;9.074;2022-11-06T07:14:10;10.20;99.90
21508;DHT22;10915;54.352;9.074;2022-11-06T07:16:37;10.30;99.90
21508;DHT22;10915;54.352;9.074;2022-11-06T07:19:02;10.30;99.90
21508;DHT22;10915;54.352;9.074;2022-11-06T07:21:28;10.30;99.90
21508;DHT22;10915;54.352;9.074;2022-11-06T07:23:53;10.30;99.90
21508;DHT22;10915;54.352;9.074;2022-11-06T07:26:19;10.20;99.90
21508;DHT22;10915;54.352;9.074;2022-11-06T07:28:45;10.20;99.90
21508;DHT22;10915;54.352;9.074;2022-11-06T07:31:10;10.30;99.90
21508;DHT22;10915;54.352;9.074;2022-11-06T07:33:39;10.30;99.90
21508;DHT22;10915;54.352;9.074;2022-11-06T07:36:07;10.30;99.90
21508;DHT22;10915;54.352;9.074;2022-11-06T07:38:34;10.30;99.90
21508;DHT22;10915;54.352;9.074;2022-11-06T07:41:05;10.30;99.90
21508;DHT22;10915;54.352;9.074;2022-11-06T07:43:31;10.30;99.90
21508;DHT22;10915;54.352;9.074;2022-11-06T07:45:59;10.30;99.90
21508;DHT22;10915;54.352;9.074;2022-11-06T07:48:29;10.30;99.90
21508;DHT22;10915;54.352;9.074;2022-11-06T07:50:55;10.30;99.90
21508;DHT22;10915;54.352;9.074;2022-11-06T07:53:21;10.30;99.90
21508;DHT22;10915;54.352;9.074;2022-11-06T07:55:51;10.30;99.90
21508;DHT22;10915;54.352;9.074;2022-11-06T07:58:17;10.30;99.90
21508;DHT22;10915;54.352;9.074;2022-11-06T08:00:48;10.30;99.90
21508;DHT22;10915;54.352;9.074;2022-11-06T08:03:14;10.30;99.90
21508;DHT22;10915;54.352;9.074;2022-11-06T08:05:40;10.30;99.90
21508;DHT22;10915;54.352;9.074;2022-11-06T08:08:06;10.30;99.90
21508;DHT22;10915;54.352;9.074;2022-11-06T08:10:32;10.30;99.90
21508;DHT22;10915;54.352;9.074;2022-11-06T08:13:01;10.30;99.90
21508;DHT22;10915;54.352;9.074;2022-11-06T08:15:27;10.30;99.90
21508;DHT22;10915;54.352;9.074;2022-11-06T08:17:53;10.30;99.90
21508;DHT22;10915;54.352;9.074;2022-11-06T08:20:19;10.30;99.90
21508;DHT22;10915;54.352;9.074;2022-11-06T08:22:44;10.30;99.90
21508;DHT22;10915;54.352;9.074;2022-11-06T08:25:10;10.30;99.90
21508;DHT22;10915;54.352;9.074;2022-11-06T08:27:36;10.30;99.90
21508;DHT22;10915;54.352;9.074;2022-11-06T08:30:03;10.40;99.90
21508;DHT22;10915;54.352;9.074;2022-11-06T08:32:29;10.40;99.90
21508;DHT22;10915;54.352;9.074;2022-11-06T08:34:54;10.40;99.90
21508;DHT22;10915;54.352;9.074;2022-11-06T08:37:20;10.40;99.90
21508;DHT22;10915;54.352;9.074;2022-11-06T08:39:46;10.40;99.90
21508;DHT22;10915;54.352;9.074;2022-11-06T08:42:12;10.40;99.90
21508;DHT22;10915;54.352;9.074;2022-11-06T08:44:38;10.50;99.90
21508;DHT22;10915;54.352;9.074;2022-11-06T08:47:04;10.50;99.90
21508;DHT22;10915;54.352;9.074;2022-11-06T08:49:30;10.50;99.90
21508;DHT22;10915;54.352;9.074;2022-11-06T08:51:55;10.50;99.90
21508;DHT22;10915;54.352;9.074;2022-11-06T08:54:21;10.50;99.90
21508;DHT22;10915;54.352;9.074;2022-11-06T08:56:47;10.50;99.90
21508;DHT22;10915;54.352;9.074;2022-11-06T08:59:13;10.60;99.90
21508;DHT22;10915;54.352;9.074;2022-11-06T09:01:39;10.60;99.90
21508;DHT22;10915;54.352;9.074;2022-11-06T09:04:04;10.60;99.90
21508;DHT22;10915;54.352;9.074;2022-11-06T09:06:30;10.60;99.90
21508;DHT22;10915;54.352;9.074;2022-11-06T09:08:56;10.60;99.90
21508;DHT22;10915;54.352;9.074;2022-11-06T09:11:22;10.60;99.90
21508;DHT22;10915;54.352;9.074;2022-11-06T09:13:48;10.60;99.90
21508;DHT22;10915;54.352;9.074;2022-11-06T09:16:13;10.60;99.90
21508;DHT22;10915;54.352;9.074;2022-11-06T09:18:39;10.60;99.90
21508;DHT22;10915;54.352;9.074;2022-11-06T09:21:05;10.50;99.90
21508;DHT22;10915;54.352;9.074;2022-11-06T09:23:30;10.60;99.90
21508;DHT22;10915;54.352;9.074;2022-11-06T09:25:56;10.60;99.90
21508;DHT22;10915;54.352;9.074;2022-11-06T09:28:23;10.70;99.90
21508;DHT22;10915;54.352;9.074;2022-11-06T09:30:48;10.70;99.90
21508;DHT22;10915;54.352;9.074;2022-11-06T09:33:14;10.80;99.90
21508;DHT22;10915;54.352;9.074;2022-11-06T09:35:40;10.80;99.90
21508;DHT22;10915;54.352;9.074;2022-11-06T09:38:08;10.80;99.90
21508;DHT22;10915;54.352;9.074;2022-11-06T09:45:39;11.00;99.90
21508;DHT22;10915;54.352;9.074;2022-11-06T09:50:36;11.00;99.90
21508;DHT22;10915;54.352;9.074;2022-11-06T09:53:18;11.00;99.90
21508;DHT22;10915;54.352;9.074;2022-11-06T09:55:47;11.10;99.90
21508;DHT22;10915;54.352;9.074;2022-11-06T09:58:19;11.10;99.90
21508;DHT22;10915;54.352;9.074;2022-11-06T10:00:49;11.10;99.90
21508;DHT22;10915;54.352;9.074;2022-11-06T10:03:22;11.20;99.90
21508;DHT22;10915;54.352;9.074;2022-11-06T10:05:51;11.20;99.90
21508;DHT22;10915;54.352;9.074;2022-11-06T10:08:26;11.30;99.90
21508;DHT22;10915;54.352;9.074;2022-11-06T10:11:05;11.30;99.90
21508;DHT22;10915;54.352;9.074;2022-11-06T10:14:05;11.40;99.90
21508;DHT22;10915;54.352;9.074;2022-11-06T10:16:46;11.40;99.90
21508;DHT22;10915;54.352;9.074;2022-11-06T10:24:46;11.40;99.90
21508;DHT22;10915;54.352;9.074;2022-11-06T10:27:34;11.40;99.90
21508;DHT22;10915;54.352;9.074;2022-11-06T10:30:11;11.40;99.90
21508;DHT22;10915;54.352;9.074;2022-11-06T10:35:26;11.40;99.90
21508;DHT22;10915;54.352;9.074;2022-11-06T10:38:04;11.50;99.90
21508;DHT22;10915;54.352;9.074;2022-11-06T10:40:31;11.60;99.90
21508;DHT22;10915;54.352;9.074;2022-11-06T10:45:33;11.70;99.90
21508;DHT22;10915;54.352;9.074;2022-11-06T10:48:05;11.80;99.90
21508;DHT22;10915;54.352;9.074;2022-11-06T10:50:48;11.90;99.90
21508;DHT22;10915;54.352;9.074;2022-11-06T10:53:35;11.90;99.90
21508;DHT22;10915;54.352;9.074;2022-11-06T10:56:24;11.90;99.90
21508;DHT22;10915;54.352;9.074;2022-11-06T10:58:54;11.90;99.90
21508;DHT22;10915;54.352;9.074;2022-11-06T11:01:19;11.90;99.90
21508;DHT22;10915;54.352;9.074;2022-11-06T11:03:46;11.90;99.90
21508;DHT22;10915;54.352;9.074;2022-11-06T11:06:12;11.90;99.90
21508;DHT22;10915;54.352;9.074;2022-11-06T11:08:45;11.90;99.90
21508;DHT22;10915;54.352;9.074;2022-11-06T11:13:40;12.00;99.90
21508;DHT22;10915;54.352;9.074;2022-11-06T11:16:17;12.10;99.90
21508;DHT22;10915;54.352;9.074;2022-11-06T11:18:44;12.20;99.90
21508;DHT22;10915;54.352;9.074;2022-11-06T11:23:39;12.20;99.90
21508;DHT22;10915;54.352;9.074;2022-11-06T11:26:24;12.20;99.90
21508;DHT22;10915;54.352;9.074;2022-11-06T11:28:57;12.20;99.90
21508;DHT22;10915;54.352;9.074;2022-11-06T11:31:31;12.30;99.90
21508;DHT22;10915;54.352;9.074;2022-11-06T11:34:00;12.40;99.90
21508;DHT22;10915;54.352;9.074;2022-11-06T11:36:58;12.40;99.90
21508;DHT22;10915;54.352;9.074;2022-11-06T11:39:27;12.40;99.90
21508;DHT22;10915;54.352;9.074;2022-11-06T11:45:17;12.30;99.90
21508;DHT22;10915;54.352;9.074;2022-11-06T11:47:46;12.30;99.90
21508;DHT22;10915;54.352;9.074;2022-11-06T11:50:24;12.30;99.90
21508;DHT22;10915;54.352;9.074;2022-11-06T11:53:03;12.30;99.90
21508;DHT22;10915;54.352;9.074;2022-11-06T11:55:30;12.10;99.90
21508;DHT22;10915;54.352;9.074;2022-11-06T11:58:01;12.10;99.90
21508;DHT22;10915;54.352;9.074;2022-11-06T12:00:27;12.20;99.90
21508;DHT22;10915;54.352;9.074;2022-11-06T12:03:03;12.20;99.90
21508;DHT22;10915;54.352;9.074;2022-11-06T12:05:36;12.20;99.90
21508;DHT22;10915;54.352;9.074;2022-11-06T12:08:03;12.20;99.90
21508;DHT22;10915;54.352;9.074;2022-11-06T12:10:36;12.10;99.90
21508;DHT22;10915;54.352;9.074;2022-11-06T12:13:05;12.20;99.90
21508;DHT22;10915;54.352;9.074;2022-11-06T12:15:48;12.20;99.90
21508;DHT22;10915;54.352;9.074;2022-11-06T12:18:18;12.10;99.90
21508;DHT22;10915;54.352;9.074;2022-11-06T12:21:17;12.20;99.90
21508;DHT22;10915;54.352;9.074;2022-11-06T12:31:40;12.20;99.90
21508;DHT22;10915;54.352;9.074;2022-11-06T12:34:12;12.20;99.90
21508;DHT22;10915;54.352;9.074;2022-11-06T12:36:46;12.20;99.90
21508;DHT22;10915;54.352;9.074;2022-11-06T12:39:18;12.20;99.90
21508;DHT22;10915;54.352;9.074;2022-11-06T12:41:48;12.30;99.90
21508;DHT22;10915;54.352;9.074;2022-11-06T12:44:15;12.30;99.90
21508;DHT22;10915;54.352;9.074;2022-11-06T12:46:51;12.30;99.90
21508;DHT22;10915;54.352;9.074;2022-11-06T12:54:48;12.30;99.90
21508;DHT22;10915;54.352;9.074;2022-11-06T13:00:23;12.30;99.90
21508;DHT22;10915;54.352;9.074;2022-11-06T13:06:04;12.40;99.90
21508;DHT22;10915;54.352;9.074;2022-11-06T13:17:00;12.40;99.90
21508;DHT22;10915;54.352;9.074;2022-11-06T13:22:22;12.50;99.90
21508;DHT22;10915;54.352;9.074;2022-11-06T13:50:57;12.10;99.90
21508;DHT22;10915;54.352;9.074;2022-11-06T13:53:42;12.10;99.90
21508;DHT22;10915;54.352;9.074;2022-11-06T13:56:44;12.10;99.90
21508;DHT22;10915;54.352;9.074;2022-11-06T13:59:38;12.00;99.90
21508;DHT22;10915;54.352;9.074;2022-11-06T14:07:04;12.00;99.90
21508;DHT22;10915;54.352;9.074;2022-11-06T14:09:33;12.00;99.90
21508;DHT22;10915;54.352;9.074;2022-11-06T14:12:04;12.10;99.90
21508;DHT22;10915;54.352;9.074;2022-11-06T14:14:32;12.10;99.90
21508;DHT22;10915;54.352;9.074;2022-11-06T14:22:28;12.10;99.90
21508;DHT22;10915;54.352;9.074;2022-11-06T14:24:54;12.10;99.90
21508;DHT22;10915;54.352;9.074;2022-11-06T14:30:05;12.10;99.90
21508;DHT22;10915;54.352;9.074;2022-11-06T14:32:46;12.00;99.90
21508;DHT22;10915;54.352;9.074;2022-11-06T14:40:36;11.90;99.90
21508;DHT22;10915;54.352;9.074;2022-11-06T14:43:31;11.90;99.90
21508;DHT22;10915;54.352;9.074;2022-11-06T14:46:02;11.90;99.90
21508;DHT22;10915;54.352;9.074;2022-11-06T14:48:35;11.90;99.90
21508;DHT22;10915;54.352;9.074;2022-11-06T14:51:05;11.90;99.90
21508;DHT22;10915;54.352;9.074;2022-11-06T14:53:39;11.80;99.90
21508;DHT22;10915;54.352;9.074;2022-11-06T14:56:11;11.80;99.90
21508;DHT22;10915;54.352;9.074;2022-11-06T14:58:52;11.80;99.90
21508;DHT22;10915;54.352;9.074;2022-11-06T15:01:57;11.70;99.90
21508;DHT22;10915;54.352;9.074;2022-11-06T15:04:26;11.70;99.90
21508;DHT22;10915;54.352;9.074;2022-11-06T15:06:54;11.60;99.90
21508;DHT22;10915;54.352;9.074;2022-11-06T15:12:06;11.60;99.90
21508;DHT22;10915;54.352;9.074;2022-11-06T15:17:14;11.50;99.90
21508;DHT22;10915;54.352;9.074;2022-11-06T15:19:52;11.50;99.90
21508;DHT22;10915;54.352;9.074;2022-11-06T15:22:35;11.50;99.90
21508;DHT22;10915;54.352;9.074;2022-11-06T15:27:44;11.50;99.90
21508;DHT22;10915;54.352;9.074;2022-11-06T15:30:17;11.40;99.90
21508;DHT22;10915;54.352;9.074;2022-11-06T15:32:44;11.40;99.90
21508;DHT22;10915;54.352;9.074;2022-11-06T15:35:27;11.40;99.90
21508;DHT22;10915;54.352;9.074;2022-11-06T15:38:03;11.40;99.90
21508;DHT22;10915;54.352;9.074;2022-11-06T15:40:32;11.40;99.90
21508;DHT22;10915;54.352;9.074;2022-11-06T15:43:29;11.40;99.90
21508;DHT22;10915;54.352;9.074;2022-11-06T15:46:27;11.30;99.90
21508;DHT22;10915;54.352;9.074;2022-11-06T15:49:25;11.40;99.90
21508;DHT22;10915;54.352;9.074;2022-11-06T15:51:59;11.40;99.90
21508;DHT22;10915;54.352;9.074;2022-11-06T15:54:36;11.40;99.90
21508;DHT22;10915;54.352;9.074;2022-11-06T15:57:23;11.40;99.90
21508;DHT22;10915;54.352;9.074;2022-11-06T15:59:50;11.40;99.90
21508;DHT22;10915;54.352;9.074;2022-11-06T16:02:20;11.40;99.90
21508;DHT22;10915;54.352;9.074;2022-11-06T16:04:48;11.40;99.90
21508;DHT22;10915;54.352;9.074;2022-11-06T16:07:16;11.40;99.90
21508;DHT22;10915;54.352;9.074;2022-11-06T16:09:43;11.50;99.90
21508;DHT22;10915;54.352;9.074;2022-11-06T16:12:12;11.50;99.90
21508;DHT22;10915;54.352;9.074;2022-11-06T16:14:40;11.50;99.90
21508;DHT22;10915;54.352;9.074;2022-11-06T16:17:22;11.50;99.90
21508;DHT22;10915;54.352;9.074;2022-11-06T16:19:50;11.50;99.90
21508;DHT22;10915;54.352;9.074;2022-11-06T16:22:18;11.60;99.90
21508;DHT22;10915;54.352;9.074;2022-11-06T16:24:52;11.50;99.90
21508;DHT22;10915;54.352;9.074;2022-11-06T16:27:20;11.60;99.90
21508;DHT22;10915;54.352;9.074;2022-11-06T16:29:51;11.50;99.90
21508;DHT22;10915;54.352;9.074;2022-11-06T16:32:20;11.50;99.90
21508;DHT22;10915;54.352;9.074;2022-11-06T16:34:47;11.50;99.90
21508;DHT22;10915;54.352;9.074;2022-11-06T16:39:46;11.50;99.90
21508;DHT22;10915;54.352;9.074;2022-11-06T16:44:47;11.50;99.90
21508;DHT22;10915;54.352;9.074;2022-11-06T16:47:20;11.50;99.90
21508;DHT22;10915;54.352;9.074;2022-11-06T16:57:40;11.40;99.90
21508;DHT22;10915;54.352;9.074;2022-11-06T17:02:51;11.40;99.90
21508;DHT22;10915;54.352;9.074;2022-11-06T17:05:28;11.40;99.90
21508;DHT22;10915;54.352;9.074;2022-11-06T17:08:29;11.40;99.90
21508;DHT22;10915;54.352;9.074;2022-11-06T17:10:56;11.40;99.90
21508;DHT22;10915;54.352;9.074;2022-11-06T17:13:27;11.40;99.90
21508;DHT22;10915;54.352;9.074;2022-11-06T17:16:01;11.40;99.90
21508;DHT22;10915;54.352;9.074;2022-11-06T17:18:29;11.40;99.90
21508;DHT22;10915;54.352;9.074;2022-11-06T17:20:57;11.40;99.90
21508;DHT22;10915;54.352;9.074;2022-11-06T17:23:24;11.40;99.90
21508;DHT22;10915;54.352;9.074;2022-11-06T17:25:59;11.40;99.90
21508;DHT22;10915;54.352;9.074;2022-11-06T17:28:25;11.30;99.90
21508;DHT22;10915;54.352;9.074;2022-11-06T17:30:51;11.30;99.90
21508;DHT22;10915;54.352;9.074;2022-11-06T17:33:17;11.30;99.90
21508;DHT22;10915;54.352;9.074;2022-11-06T17:35:42;11.30;99.90
21508;DHT22;10915;54.352;9.074;2022-11-06T17:38:12;11.30;99.90
21508;DHT22;10915;54.352;9.074;2022-11-06T17:40:39;11.20;99.90
21508;DHT22;10915;54.352;9.074;2022-11-06T17:43:04;11.20;99.90
21508;DHT22;10915;54.352;9.074;2022-11-06T17:45:30;11.20;99.90
21508;DHT22;10915;54.352;9.074;2022-11-06T17:47:56;11.20;99.90
21508;DHT22;10915;54.352;9.074;2022-11-06T17:50:22;11.20;99.90
21508;DHT22;10915;54.352;9.074;2022-11-06T17:52:48;11.20;99.90
21508;DHT22;10915;54.352;9.074;2022-11-06T17:55:14;11.20;99.90
21508;DHT22;10915;54.352;9.074;2022-11-06T17:57:40;11.20;99.90
21508;DHT22;10915;54.352;9.074;2022-11-06T18:00:07;11.20;99.90
21508;DHT22;10915;54.352;9.074;2022-11-06T18:02:34;11.10;99.90
21508;DHT22;10915;54.352;9.074;2022-11-06T18:05:00;11.10;99.90
21508;DHT22;10915;54.352;9.074;2022-11-06T18:07:26;11.10;99.90
21508;DHT22;10915;54.352;9.074;2022-11-06T18:09:51;11.10;99.90
21508;DHT22;10915;54.352;9.074;2022-11-06T18:12:17;11.10;99.90
21508;DHT22;10915;54.352;9.074;2022-11-06T18:14:45;11.00;99.90
21508;DHT22;10915;54.352;9.074;2022-11-06T18:17:11;11.00;99.90
21508;DHT22;10915;54.352;9.074;2022-11-06T18:19:37;11.10;99.90
21508;DHT22;10915;54.352;9.074;2022-11-06T18:22:03;11.00;99.90
21508;DHT22;10915;54.352;9.074;2022-11-06T18:24:29;11.00;99.90
21508;DHT22;10915;54.352;9.074;2022-11-06T18:26:55;11.00;99.90
21508;DHT22;10915;54.352;9.074;2022-11-06T18:29:20;11.00;99.90
21508;DHT22;10915;54.352;9.074;2022-11-06T18:31:46;11.00;99.90
21508;DHT22;10915;54.352;9.074;2022-11-06T18:34:14;10.90;99.90
21508;DHT22;10915;54.352;9.074;2022-11-06T18:36:40;11.00;99.90